sensor_id;sensor_type;location;lat;lon;timestamp;temperature;humidity
35381;DHT22;21486;51.916;8.378;2023-01-25T00:01:43;1.10;93.00
35381;DHT22;21486;51.916;8.378;2023-01-25T00:04:08;1.00;93.10
35381;DHT22;21486;51.916;8.378;2023-01-25T00:06:34;1.10;93.10
35381;DHT22;21486;51.916;8.378;2023-01-25T00:09:00;1.10;92.90
35381;DHT22;21486;51.916;8.378;2023-01-25T00:11:25;1.20;92.90
35381;DHT22;21486;51.916;8.378;2023-01-25T00:13:54;1.00;93.20
35381;DHT22;21486;51.916;8.378;2023-01-25T00:16:21;1.00;93.60
35381;DHT22;21486;51.916;8.378;2023-01-25T00:18:47;0.90;93.70
35381;DHT22;21486;51.916;8.378;2023-01-25T00:21:15;1.10;93.80
35381;DHT22;21486;51.916;8.378;2023-01-25T00:23:41;1.20;93.10
35381;DHT22;21486;51.916;8.378;2023-01-25T00:26:06;1.10;93.10
35381;DHT22;21486;51.916;8.378;2023-01-25T00:28:32;1.00;93.20
35381;DHT22;21486;51.916;8.378;2023-01-25T00:30:59;0.90;93.90
35381;DHT22;21486;51.916;8.378;2023-01-25T00:33:43;0.80;94.20
35381;DHT22;21486;51.916;8.378;2023-01-25T00:38:57;0.80;94.30
35381;DHT22;21486;51.916;8.378;2023-01-25T00:41:23;0.70;94.50
35381;DHT22;21486;51.916;8.378;2023-01-25T00:43:49;0.70;94.60
35381;DHT22;21486;51.916;8.378;2023-01-25T00:46:15;0.60;94.80
35381;DHT22;21486;51.916;8.378;2023-01-25T00:48:41;0.70;95.20
35381;DHT22;21486;51.916;8.378;2023-01-25T00:51:06;0.60;95.30
35381;DHT22;21486;51.916;8.378;2023-01-25T00:53:32;0.60;95.30
35381;DHT22;21486;51.916;8.378;2023-01-25T00:55:58;0.60;95.50
35381;DHT22;21486;51.916;8.378;2023-01-25T00:58:23;0.60;95.50
35381;DHT22;21486;51.916;8.378;2023-01-25T01:00:51;0.80;95.50
35381;DHT22;21486;51.916;8.378;2023-01-25T01:03:17;1.00;94.90
35381;DHT22;21486;51.916;8.378;2023-01-25T01:05:42;0.80;95.00
35381;DHT22;21486;51.916;8.378;2023-01-25T01:08:08;0.70;95.40
35381;DHT22;21486;51.916;8.378;2023-01-25T01:10:33;0.80;95.40
35381;DHT22;21486;51.916;8.378;2023-01-25T01:12:59;0.70;95.60
35381;DHT22;21486;51.916;8.378;2023-01-25T01:15:24;0.80;95.80
35381;DHT22;21486;51.916;8.378;2023-01-25T01:17:50;0.80;96.00
35381;DHT22;21486;51.916;8.378;2023-01-25T01:20:15;0.90;95.80
35381;DHT22;21486;51.916;8.378;2023-01-25T01:22:41;0.90;95.50
35381;DHT22;21486;51.916;8.378;2023-01-25T01:25:07;1.00;95.30
35381;DHT22;21486;51.916;8.378;2023-01-25T01:27:33;1.10;95.00
35381;DHT22;21486;51.916;8.378;2023-01-25T01:29:58;1.10;95.00
35381;DHT22;21486;51.916;8.378;2023-01-25T01:33:02;1.00;95.10
35381;DHT22;21486;51.916;8.378;2023-01-25T01:35:28;1.10;95.40
35381;DHT22;21486;51.916;8.378;2023-01-25T01:37:54;1.10;95.20
35381;DHT22;21486;51.916;8.378;2023-01-25T01:40:20;1.10;95.20
35381;DHT22;21486;51.916;8.378;2023-01-25T01:42:58;1.10;95.30
35381;DHT22;21486;51.916;8.378;2023-01-25T01:45:49;1.00;95.10
35381;DHT22;21486;51.916;8.378;2023-01-25T01:48:36;1.10;95.10
35381;DHT22;21486;51.916;8.378;2023-01-25T01:51:15;1.30;94.70
35381;DHT22;21486;51.916;8.378;2023-01-25T01:53:47;1.10;94.70
35381;DHT22;21486;51.916;8.378;2023-01-25T01:56:18;1.00;95.30
35381;DHT22;21486;51.916;8.378;2023-01-25T01:58:46;0.90;95.70
35381;DHT22;21486;51.916;8.378;2023-01-25T02:01:13;0.90;95.80
35381;DHT22;21486;51.916;8.378;2023-01-25T02:03:39;1.00;95.70
35381;DHT22;21486;51.916;8.378;2023-01-25T02:06:19;1.00;95.70
35381;DHT22;21486;51.916;8.378;2023-01-25T02:08:49;1.00;95.80
35381;DHT22;21486;51.916;8.378;2023-01-25T02:11:15;1.00;96.10
35381;DHT22;21486;51.916;8.378;2023-01-25T02:13:41;1.10;95.40
35381;DHT22;21486;51.916;8.378;2023-01-25T02:16:14;1.10;95.30
35381;DHT22;21486;51.916;8.378;2023-01-25T02:18:40;1.00;95.40
35381;DHT22;21486;51.916;8.378;2023-01-25T02:21:06;1.10;95.40
35381;DHT22;21486;51.916;8.378;2023-01-25T02:26:21;0.90;96.10
35381;DHT22;21486;51.916;8.378;2023-01-25T02:28:54;0.90;95.90
35381;DHT22;21486;51.916;8.378;2023-01-25T02:31:20;0.80;96.20
35381;DHT22;21486;51.916;8.378;2023-01-25T02:33:46;0.80;96.50
35381;DHT22;21486;51.916;8.378;2023-01-25T02:36:23;0.70;96.80
35381;DHT22;21486;51.916;8.378;2023-01-25T02:39:01;0.90;96.20
35381;DHT22;21486;51.916;8.378;2023-01-25T02:41:34;0.90;96.30
35381;DHT22;21486;51.916;8.378;2023-01-25T02:44:03;0.80;96.60
35381;DHT22;21486;51.916;8.378;2023-01-25T02:46:31;0.90;96.80
35381;DHT22;21486;51.916;8.378;2023-01-25T02:48:58;0.90;96.70
35381;DHT22;21486;51.916;8.378;2023-01-25T02:51:26;1.00;96.20
35381;DHT22;21486;51.916;8.378;2023-01-25T02:53:52;1.00;96.40
35381;DHT22;21486;51.916;8.378;2023-01-25T02:56:18;1.00;96.30
35381;DHT22;21486;51.916;8.378;2023-01-25T02:58:44;0.90;96.40
35381;DHT22;21486;51.916;8.378;2023-01-25T03:01:11;0.80;96.50
35381;DHT22;21486;51.916;8.378;2023-01-25T03:03:36;0.80;96.70
35381;DHT22;21486;51.916;8.378;2023-01-25T03:06:02;0.70;97.00
35381;DHT22;21486;51.916;8.378;2023-01-25T03:08:28;0.70;97.20
35381;DHT22;21486;51.916;8.378;2023-01-25T03:11:01;0.80;97.20
35381;DHT22;21486;51.916;8.378;2023-01-25T03:13:28;0.80;97.20
35381;DHT22;21486;51.916;8.378;2023-01-25T03:16:02;0.90;97.00
35381;DHT22;21486;51.916;8.378;2023-01-25T03:18:28;1.00;97.00
35381;DHT22;21486;51.916;8.378;2023-01-25T03:20:54;1.00;96.60
35381;DHT22;21486;51.916;8.378;2023-01-25T03:23:19;0.90;96.60
35381;DHT22;21486;51.916;8.378;2023-01-25T03:25:45;0.90;97.00
35381;DHT22;21486;51.916;8.378;2023-01-25T03:28:11;0.80;96.90
35381;DHT22;21486;51.916;8.378;2023-01-25T03:30:36;0.80;97.20
35381;DHT22;21486;51.916;8.378;2023-01-25T03:33:02;0.80;97.30
35381;DHT22;21486;51.916;8.378;2023-01-25T03:35:27;0.80;97.50
35381;DHT22;21486;51.916;8.378;2023-01-25T03:37:53;0.80;97.60
35381;DHT22;21486;51.916;8.378;2023-01-25T03:40:19;0.80;97.50
35381;DHT22;21486;51.916;8.378;2023-01-25T03:42:44;0.70;97.40
35381;DHT22;21486;51.916;8.378;2023-01-25T03:45:10;0.70;97.60
35381;DHT22;21486;51.916;8.378;2023-01-25T03:47:39;0.70;97.80
35381;DHT22;21486;51.916;8.378;2023-01-25T03:50:05;0.70;97.60
35381;DHT22;21486;51.916;8.378;2023-01-25T03:52:30;0.70;97.60
35381;DHT22;21486;51.916;8.378;2023-01-25T03:55:03;0.60;98.00
35381;DHT22;21486;51.916;8.378;2023-01-25T03:57:29;0.60;98.20
35381;DHT22;21486;51.916;8.378;2023-01-25T03:59:54;0.60;98.20
35381;DHT22;21486;51.916;8.378;2023-01-25T04:02:20;0.60;98.20
35381;DHT22;21486;51.916;8.378;2023-01-25T04:04:45;0.50;98.40
35381;DHT22;21486;51.916;8.378;2023-01-25T04:07:11;0.60;98.60
35381;DHT22;21486;51.916;8.378;2023-01-25T04:09:36;0.60;98.30
35381;DHT22;21486;51.916;8.378;2023-01-25T04:12:02;0.60;98.50
35381;DHT22;21486;51.916;8.378;2023-01-25T04:14:27;0.60;98.40
35381;DHT22;21486;51.916;8.378;2023-01-25T04:16:53;0.60;98.60
35381;DHT22;21486;51.916;8.378;2023-01-25T04:19:18;0.70;98.50
35381;DHT22;21486;51.916;8.378;2023-01-25T04:21:44;0.70;98.60
35381;DHT22;21486;51.916;8.378;2023-01-25T04:24:09;0.60;98.60
35381;DHT22;21486;51.916;8.378;2023-01-25T04:26:35;0.70;98.40
35381;DHT22;21486;51.916;8.378;2023-01-25T04:29:00;0.50;98.50
35381;DHT22;21486;51.916;8.378;2023-01-25T04:31:26;0.50;98.80
35381;DHT22;21486;51.916;8.378;2023-01-25T04:33:52;0.50;98.80
35381;DHT22;21486;51.916;8.378;2023-01-25T04:36:17;0.50;98.70
35381;DHT22;21486;51.916;8.378;2023-01-25T04:38:43;0.40;98.80
35381;DHT22;21486;51.916;8.378;2023-01-25T04:41:08;0.40;99.00
35381;DHT22;21486;51.916;8.378;2023-01-25T04:43:34;0.50;99.10
35381;DHT22;21486;51.916;8.378;2023-01-25T04:46:01;0.40;99.00
35381;DHT22;21486;51.916;8.378;2023-01-25T04:48:27;0.40;99.20
35381;DHT22;21486;51.916;8.378;2023-01-25T04:50:52;0.40;99.30
35381;DHT22;21486;51.916;8.378;2023-01-25T04:53:18;0.40;99.50
35381;DHT22;21486;51.916;8.378;2023-01-25T04:55:45;0.50;99.50
35381;DHT22;21486;51.916;8.378;2023-01-25T04:58:11;0.50;99.40
35381;DHT22;21486;51.916;8.378;2023-01-25T05:00:37;0.50;99.20
35381;DHT22;21486;51.916;8.378;2023-01-25T05:03:03;0.50;99.10
35381;DHT22;21486;51.916;8.378;2023-01-25T05:05:29;0.40;99.40
35381;DHT22;21486;51.916;8.378;2023-01-25T05:07:54;0.30;99.50
35381;DHT22;21486;51.916;8.378;2023-01-25T05:10:20;0.20;99.70
35381;DHT22;21486;51.916;8.378;2023-01-25T05:12:45;0.20;99.90
35381;DHT22;21486;51.916;8.378;2023-01-25T05:15:11;0.20;99.90
35381;DHT22;21486;51.916;8.378;2023-01-25T05:17:36;0.30;99.90
35381;DHT22;21486;51.916;8.378;2023-01-25T05:20:03;0.40;99.90
35381;DHT22;21486;51.916;8.378;2023-01-25T05:22:28;0.40;99.70
35381;DHT22;21486;51.916;8.378;2023-01-25T05:24:54;0.60;99.40
35381;DHT22;21486;51.916;8.378;2023-01-25T05:27:20;0.70;98.40
35381;DHT22;21486;51.916;8.378;2023-01-25T05:29:46;0.60;98.90
35381;DHT22;21486;51.916;8.378;2023-01-25T05:32:20;0.60;98.90
35381;DHT22;21486;51.916;8.378;2023-01-25T05:34:46;0.30;99.10
35381;DHT22;21486;51.916;8.378;2023-01-25T05:37:15;0.30;99.40
35381;DHT22;21486;51.916;8.378;2023-01-25T05:39:41;0.30;99.70
35381;DHT22;21486;51.916;8.378;2023-01-25T05:42:16;0.30;99.80
35381;DHT22;21486;51.916;8.378;2023-01-25T05:44:42;0.30;99.90
35381;DHT22;21486;51.916;8.378;2023-01-25T05:47:16;0.30;99.90
35381;DHT22;21486;51.916;8.378;2023-01-25T05:49:42;0.30;99.90
35381;DHT22;21486;51.916;8.378;2023-01-25T05:52:13;0.20;99.90
35381;DHT22;21486;51.916;8.378;2023-01-25T05:54:38;0.30;99.90
35381;DHT22;21486;51.916;8.378;2023-01-25T05:57:04;0.50;99.90
35381;DHT22;21486;51.916;8.378;2023-01-25T05:59:29;0.50;99.80
35381;DHT22;21486;51.916;8.378;2023-01-25T06:01:55;0.40;99.70
35381;DHT22;21486;51.916;8.378;2023-01-25T06:04:20;0.40;99.70
35381;DHT22;21486;51.916;8.378;2023-01-25T06:06:46;0.40;99.90
35381;DHT22;21486;51.916;8.378;2023-01-25T06:09:12;0.30;99.80
35381;DHT22;21486;51.916;8.378;2023-01-25T06:11:38;0.20;99.90
35381;DHT22;21486;51.916;8.378;2023-01-25T06:14:04;0.20;99.90
35381;DHT22;21486;51.916;8.378;2023-01-25T06:16:29;0.30;99.90
35381;DHT22;21486;51.916;8.378;2023-01-25T06:18:55;0.30;99.90
35381;DHT22;21486;51.916;8.378;2023-01-25T06:21:21;0.30;99.90
35381;DHT22;21486;51.916;8.378;2023-01-25T06:23:47;0.30;99.90
35381;DHT22;21486;51.916;8.378;2023-01-25T06:26:14;0.50;99.90
35381;DHT22;21486;51.916;8.378;2023-01-25T06:28:39;0.50;99.30
35381;DHT22;21486;51.916;8.378;2023-01-25T06:31:06;0.50;99.40
35381;DHT22;21486;51.916;8.378;2023-01-25T06:33:33;0.40;99.50
35381;DHT22;21486;51.916;8.378;2023-01-25T06:36:00;0.30;99.80
35381;DHT22;21486;51.916;8.378;2023-01-25T06:38:26;0.50;99.80
35381;DHT22;21486;51.916;8.378;2023-01-25T06:40:51;0.50;99.50
35381;DHT22;21486;51.916;8.378;2023-01-25T06:43:17;0.50;99.70
35381;DHT22;21486;51.916;8.378;2023-01-25T06:45:42;0.70;99.50
35381;DHT22;21486;51.916;8.378;2023-01-25T06:48:08;0.60;99.10
35381;DHT22;21486;51.916;8.378;2023-01-25T06:50:33;0.70;99.00
35381;DHT22;21486;51.916;8.378;2023-01-25T06:52:59;0.80;99.00
35381;DHT22;21486;51.916;8.378;2023-01-25T06:55:25;0.80;98.30
35381;DHT22;21486;51.916;8.378;2023-01-25T06:57:50;0.80;98.40
35381;DHT22;21486;51.916;8.378;2023-01-25T07:00:16;0.70;98.60
35381;DHT22;21486;51.916;8.378;2023-01-25T07:02:42;0.60;99.00
35381;DHT22;21486;51.916;8.378;2023-01-25T07:05:08;0.50;99.30
35381;DHT22;21486;51.916;8.378;2023-01-25T07:07:33;0.70;99.20
35381;DHT22;21486;51.916;8.378;2023-01-25T07:09:59;0.60;98.70
35381;DHT22;21486;51.916;8.378;2023-01-25T07:12:27;0.50;99.20
35381;DHT22;21486;51.916;8.378;2023-01-25T07:14:54;0.50;99.30
35381;DHT22;21486;51.916;8.378;2023-01-25T07:17:20;0.40;99.30
35381;DHT22;21486;51.916;8.378;2023-01-25T07:19:46;0.30;99.90
35381;DHT22;21486;51.916;8.378;2023-01-25T07:22:11;0.40;99.50
35381;DHT22;21486;51.916;8.378;2023-01-25T07:24:37;0.40;99.20
35381;DHT22;21486;51.916;8.378;2023-01-25T07:27:02;0.30;99.40
35381;DHT22;21486;51.916;8.378;2023-01-25T07:29:28;0.30;99.90
35381;DHT22;21486;51.916;8.378;2023-01-25T07:31:54;0.20;99.90
35381;DHT22;21486;51.916;8.378;2023-01-25T07:34:20;0.30;99.90
35381;DHT22;21486;51.916;8.378;2023-01-25T07:36:45;0.20;99.90
35381;DHT22;21486;51.916;8.378;2023-01-25T07:39:11;0.30;99.90
35381;DHT22;21486;51.916;8.378;2023-01-25T07:41:38;0.30;99.80
35381;DHT22;21486;51.916;8.378;2023-01-25T07:44:04;0.30;99.70
35381;DHT22;21486;51.916;8.378;2023-01-25T07:46:30;0.20;99.70
35381;DHT22;21486;51.916;8.378;2023-01-25T07:48:56;0.20;99.70
35381;DHT22;21486;51.916;8.378;2023-01-25T07:51:23;0.20;99.90
35381;DHT22;21486;51.916;8.378;2023-01-25T07:53:58;0.40;99.50
35381;DHT22;21486;51.916;8.378;2023-01-25T07:56:29;0.20;99.70
35381;DHT22;21486;51.916;8.378;2023-01-25T07:58:57;0.30;99.50
35381;DHT22;21486;51.916;8.378;2023-01-25T08:01:25;0.30;99.50
35381;DHT22;21486;51.916;8.378;2023-01-25T08:03:52;0.40;99.30
35381;DHT22;21486;51.916;8.378;2023-01-25T08:06:25;0.40;99.40
35381;DHT22;21486;51.916;8.378;2023-01-25T08:08:56;0.30;99.50
35381;DHT22;21486;51.916;8.378;2023-01-25T08:11:25;0.20;99.70
35381;DHT22;21486;51.916;8.378;2023-01-25T08:13:52;0.10;99.90
35381;DHT22;21486;51.916;8.378;2023-01-25T08:16:20;0.10;99.90
35381;DHT22;21486;51.916;8.378;2023-01-25T08:18:50;0.00;99.80
35381;DHT22;21486;51.916;8.378;2023-01-25T08:21:16;-0.10;99.90
35381;DHT22;21486;51.916;8.378;2023-01-25T08:23:42;0.00;99.90
35381;DHT22;21486;51.916;8.378;2023-01-25T08:26:10;0.10;99.90
35381;DHT22;21486;51.916;8.378;2023-01-25T08:28:36;0.10;99.90
35381;DHT22;21486;51.916;8.378;2023-01-25T08:31:08;0.10;99.90
35381;DHT22;21486;51.916;8.378;2023-01-25T08:33:35;0.20;99.90
35381;DHT22;21486;51.916;8.378;2023-01-25T08:36:01;0.40;98.80
35381;DHT22;21486;51.916;8.378;2023-01-25T08:38:27;0.30;98.80
35381;DHT22;21486;51.916;8.378;2023-01-25T08:40:53;0.40;98.90
35381;DHT22;21486;51.916;8.378;2023-01-25T08:43:18;0.30;99.30
35381;DHT22;21486;51.916;8.378;2023-01-25T08:45:44;0.30;99.30
35381;DHT22;21486;51.916;8.378;2023-01-25T08:48:10;0.20;99.00
35381;DHT22;21486;51.916;8.378;2023-01-25T08:50:45;0.20;99.40
35381;DHT22;21486;51.916;8.378;2023-01-25T08:53:11;0.10;99.30
35381;DHT22;21486;51.916;8.378;2023-01-25T08:55:37;0.00;99.50
35381;DHT22;21486;51.916;8.378;2023-01-25T08:58:02;-0.10;99.70
35381;DHT22;21486;51.916;8.378;2023-01-25T09:00:28;0.00;99.80
35381;DHT22;21486;51.916;8.378;2023-01-25T09:02:53;0.00;99.80
35381;DHT22;21486;51.916;8.378;2023-01-25T09:05:19;0.00;99.60
35381;DHT22;21486;51.916;8.378;2023-01-25T09:07:44;0.10;99.70
35381;DHT22;21486;51.916;8.378;2023-01-25T09:10:10;0.10;99.50
35381;DHT22;21486;51.916;8.378;2023-01-25T09:12:35;0.20;99.20
35381;DHT22;21486;51.916;8.378;2023-01-25T09:15:02;0.20;98.60
35381;DHT22;21486;51.916;8.378;2023-01-25T09:17:28;0.10;99.20
35381;DHT22;21486;51.916;8.378;2023-01-25T09:19:53;0.10;99.50
35381;DHT22;21486;51.916;8.378;2023-01-25T09:22:19;0.00;99.60
35381;DHT22;21486;51.916;8.378;2023-01-25T09:24:44;0.00;99.80
35381;DHT22;21486;51.916;8.378;2023-01-25T09:27:10;0.20;99.70
35381;DHT22;21486;51.916;8.378;2023-01-25T09:29:35;0.10;99.70
35381;DHT22;21486;51.916;8.378;2023-01-25T09:32:01;-0.10;99.40
35381;DHT22;21486;51.916;8.378;2023-01-25T09:34:26;-0.10;99.70
35381;DHT22;21486;51.916;8.378;2023-01-25T09:36:52;0.00;99.40
35381;DHT22;21486;51.916;8.378;2023-01-25T09:39:17;0.10;99.40
35381;DHT22;21486;51.916;8.378;2023-01-25T09:44:34;0.00;99.40
35381;DHT22;21486;51.916;8.378;2023-01-25T09:49:43;-0.20;99.50
35381;DHT22;21486;51.916;8.378;2023-01-25T09:55:01;-0.40;99.90
35381;DHT22;21486;51.916;8.378;2023-01-25T09:57:33;-0.30;99.90
35381;DHT22;21486;51.916;8.378;2023-01-25T10:00:10;-0.40;99.90
35381;DHT22;21486;51.916;8.378;2023-01-25T10:05:32;-0.20;99.90
35381;DHT22;21486;51.916;8.378;2023-01-25T10:08:10;-0.20;99.70
35381;DHT22;21486;51.916;8.378;2023-01-25T10:10:41;-0.40;99.30
35381;DHT22;21486;51.916;8.378;2023-01-25T10:13:11;-0.40;99.80
35381;DHT22;21486;51.916;8.378;2023-01-25T10:15:43;-0.50;99.90
35381;DHT22;21486;51.916;8.378;2023-01-25T10:18:27;-0.50;99.90
35381;DHT22;21486;51.916;8.378;2023-01-25T10:20:59;-0.40;99.90
35381;DHT22;21486;51.916;8.378;2023-01-25T10:26:21;-0.10;99.00
35381;DHT22;21486;51.916;8.378;2023-01-25T10:29:09;-0.30;99.00
35381;DHT22;21486;51.916;8.378;2023-01-25T10:31:48;-0.50;99.50
35381;DHT22;21486;51.916;8.378;2023-01-25T10:34:21;-0.50;99.90
35381;DHT22;21486;51.916;8.378;2023-01-25T10:36:55;-0.40;99.70
35381;DHT22;21486;51.916;8.378;2023-01-25T10:39:21;-0.60;99.50
35381;DHT22;21486;51.916;8.378;2023-01-25T10:41:56;-0.60;99.90
35381;DHT22;21486;51.916;8.378;2023-01-25T10:44:26;-0.60;99.90
35381;DHT22;21486;51.916;8.378;2023-01-25T10:52:27;-0.50;99.90
35381;DHT22;21486;51.916;8.378;2023-01-25T10:55:16;-0.50;99.90
35381;DHT22;21486;51.916;8.378;2023-01-25T11:00:29;-0.40;99.90
35381;DHT22;21486;51.916;8.378;2023-01-25T11:02:57;-0.30;99.50
35381;DHT22;21486;51.916;8.378;2023-01-25T11:05:29;-0.30;99.40
35381;DHT22;21486;51.916;8.378;2023-01-25T11:07:56;-0.10;98.90
35381;DHT22;21486;51.916;8.378;2023-01-25T11:10:34;-0.10;98.40
35381;DHT22;21486;51.916;8.378;2023-01-25T11:15:38;-0.10;98.50
35381;DHT22;21486;51.916;8.378;2023-01-25T11:18:05;-0.20;98.60
35381;DHT22;21486;51.916;8.378;2023-01-25T11:20:36;-0.20;98.80
35381;DHT22;21486;51.916;8.378;2023-01-25T11:23:02;-0.10;98.60
35381;DHT22;21486;51.916;8.378;2023-01-25T11:25:32;0.00;98.00
35381;DHT22;21486;51.916;8.378;2023-01-25T11:28:17;0.00;98.20
35381;DHT22;21486;51.916;8.378;2023-01-25T11:30:43;0.00;98.00
35381;DHT22;21486;51.916;8.378;2023-01-25T11:33:11;-0.20;98.20
35381;DHT22;21486;51.916;8.378;2023-01-25T11:38:24;-0.30;98.30
35381;DHT22;21486;51.916;8.378;2023-01-25T11:41:11;-0.40;98.60
35381;DHT22;21486;51.916;8.378;2023-01-25T11:44:05;-0.40;98.90
35381;DHT22;21486;51.916;8.378;2023-01-25T11:55:12;-0.40;98.50
35381;DHT22;21486;51.916;8.378;2023-01-25T12:06:13;-0.50;99.60
35381;DHT22;21486;51.916;8.378;2023-01-25T12:11:30;-0.30;98.90
35381;DHT22;21486;51.916;8.378;2023-01-25T12:14:05;-0.30;99.00
35381;DHT22;21486;51.916;8.378;2023-01-25T12:19:33;-0.20;98.60
35381;DHT22;21486;51.916;8.378;2023-01-25T12:24:43;-0.40;98.40
35381;DHT22;21486;51.916;8.378;2023-01-25T12:27:28;-0.40;98.80
35381;DHT22;21486;51.916;8.378;2023-01-25T12:30:01;-0.50;99.10
35381;DHT22;21486;51.916;8.378;2023-01-25T12:32:39;-0.70;99.10
35381;DHT22;21486;51.916;8.378;2023-01-25T12:35:29;-0.80;99.50
35381;DHT22;21486;51.916;8.378;2023-01-25T12:38:03;-0.80;99.80
35381;DHT22;21486;51.916;8.378;2023-01-25T12:40:48;-0.70;99.90
35381;DHT22;21486;51.916;8.378;2023-01-25T12:43:44;-0.80;99.40
35381;DHT22;21486;51.916;8.378;2023-01-25T12:46:20;-0.90;99.50
35381;DHT22;21486;51.916;8.378;2023-01-25T12:48:49;-1.00;99.90
35381;DHT22;21486;51.916;8.378;2023-01-25T12:51:18;-0.90;99.90
35381;DHT22;21486;51.916;8.378;2023-01-25T12:53:46;-1.00;99.90
35381;DHT22;21486;51.916;8.378;2023-01-25T12:56:41;-1.00;99.90
35381;DHT22;21486;51.916;8.378;2023-01-25T12:59:17;-1.10;99.90
35381;DHT22;21486;51.916;8.378;2023-01-25T13:04:43;-1.20;99.90
35381;DHT22;21486;51.916;8.378;2023-01-25T13:10:07;-0.80;99.90
35381;DHT22;21486;51.916;8.378;2023-01-25T13:12:54;-0.90;99.90
35381;DHT22;21486;51.916;8.378;2023-01-25T13:15:40;-0.90;99.90
35381;DHT22;21486;51.916;8.378;2023-01-25T13:20:54;-0.90;99.90
35381;DHT22;21486;51.916;8.378;2023-01-25T13:23:35;-0.90;99.90
35381;DHT22;21486;51.916;8.378;2023-01-25T13:28:47;-0.80;99.50
35381;DHT22;21486;51.916;8.378;2023-01-25T13:34:11;-0.70;99.40
35381;DHT22;21486;51.916;8.378;2023-01-25T13:42:02;-0.80;98.70
35381;DHT22;21486;51.916;8.378;2023-01-25T13:44:32;-0.80;99.10
35381;DHT22;21486;51.916;8.378;2023-01-25T13:47:02;-0.90;99.20
35381;DHT22;21486;51.916;8.378;2023-01-25T13:49:39;-0.80;98.80
35381;DHT22;21486;51.916;8.378;2023-01-25T13:52:05;-0.60;98.70
35381;DHT22;21486;51.916;8.378;2023-01-25T13:54:31;-0.50;98.10
35381;DHT22;21486;51.916;8.378;2023-01-25T13:57:05;-0.50;97.90
35381;DHT22;21486;51.916;8.378;2023-01-25T13:59:31;-0.50;98.10
35381;DHT22;21486;51.916;8.378;2023-01-25T14:01:58;-0.70;98.00
35381;DHT22;21486;51.916;8.378;2023-01-25T14:04:25;-0.70;98.30
35381;DHT22;21486;51.916;8.378;2023-01-25T14:06:56;-0.80;98.20
35381;DHT22;21486;51.916;8.378;2023-01-25T14:09:23;-0.70;98.70
35381;DHT22;21486;51.916;8.378;2023-01-25T14:11:57;-0.70;98.40
35381;DHT22;21486;51.916;8.378;2023-01-25T14:19:41;-0.70;98.30
35381;DHT22;21486;51.916;8.378;2023-01-25T14:25:09;-0.80;98.70
35381;DHT22;21486;51.916;8.378;2023-01-25T14:27:49;-0.60;98.10
35381;DHT22;21486;51.916;8.378;2023-01-25T14:30:19;-0.80;97.50
35381;DHT22;21486;51.916;8.378;2023-01-25T14:32:45;-0.70;98.10
35381;DHT22;21486;51.916;8.378;2023-01-25T14:37:55;-0.90;98.40
35381;DHT22;21486;51.916;8.378;2023-01-25T14:40:22;-0.80;98.80
35381;DHT22;21486;51.916;8.378;2023-01-25T14:42:49;-0.80;98.70
35381;DHT22;21486;51.916;8.378;2023-01-25T14:45:15;-0.80;98.80
35381;DHT22;21486;51.916;8.378;2023-01-25T14:47:41;-0.60;98.20
35381;DHT22;21486;51.916;8.378;2023-01-25T14:52:58;-0.50;98.20
35381;DHT22;21486;51.916;8.378;2023-01-25T14:55:25;-0.50;97.90
35381;DHT22;21486;51.916;8.378;2023-01-25T14:57:51;-0.40;97.80
35381;DHT22;21486;51.916;8.378;2023-01-25T15:00:24;-0.40;97.60
35381;DHT22;21486;51.916;8.378;2023-01-25T15:02:57;-0.40;97.60
35381;DHT22;21486;51.916;8.378;2023-01-25T15:07:55;-0.70;97.50
35381;DHT22;21486;51.916;8.378;2023-01-25T15:15:31;-0.80;97.40
35381;DHT22;21486;51.916;8.378;2023-01-25T15:17:57;-0.70;97.90
35381;DHT22;21486;51.916;8.378;2023-01-25T15:20:37;-0.60;97.40
35381;DHT22;21486;51.916;8.378;2023-01-25T15:25:49;-0.80;97.50
35381;DHT22;21486;51.916;8.378;2023-01-25T15:28:14;-0.80;97.80
35381;DHT22;21486;51.916;8.378;2023-01-25T15:30:40;-0.80;98.00
35381;DHT22;21486;51.916;8.378;2023-01-25T15:33:14;-0.70;98.30
35381;DHT22;21486;51.916;8.378;2023-01-25T15:35:42;-0.70;97.60
35381;DHT22;21486;51.916;8.378;2023-01-25T15:38:10;-0.60;97.80
35381;DHT22;21486;51.916;8.378;2023-01-25T15:40:36;-0.50;97.40
35381;DHT22;21486;51.916;8.378;2023-01-25T15:43:02;-0.70;97.50
35381;DHT22;21486;51.916;8.378;2023-01-25T15:45:28;-0.80;97.90
35381;DHT22;21486;51.916;8.378;2023-01-25T15:47:53;-0.90;97.90
35381;DHT22;21486;51.916;8.378;2023-01-25T15:50:19;-0.80;98.10
35381;DHT22;21486;51.916;8.378;2023-01-25T15:52:45;-0.70;97.30
35381;DHT22;21486;51.916;8.378;2023-01-25T15:55:12;-0.70;97.10
35381;DHT22;21486;51.916;8.378;2023-01-25T15:57:40;-0.70;97.70
35381;DHT22;21486;51.916;8.378;2023-01-25T16:00:18;-0.80;97.80
35381;DHT22;21486;51.916;8.378;2023-01-25T16:02:45;-0.80;97.90
35381;DHT22;21486;51.916;8.378;2023-01-25T16:05:10;-0.80;97.50
35381;DHT22;21486;51.916;8.378;2023-01-25T16:07:38;-0.60;97.20
35381;DHT22;21486;51.916;8.378;2023-01-25T16:10:04;-0.80;97.20
35381;DHT22;21486;51.916;8.378;2023-01-25T16:12:30;-0.80;97.30
35381;DHT22;21486;51.916;8.378;2023-01-25T16:15:00;-0.80;97.60
35381;DHT22;21486;51.916;8.378;2023-01-25T16:17:26;-0.80;97.60
35381;DHT22;21486;51.916;8.378;2023-01-25T16:19:54;-0.90;97.60
35381;DHT22;21486;51.916;8.378;2023-01-25T16:22:20;-0.60;97.00
35381;DHT22;21486;51.916;8.378;2023-01-25T16:24:45;-0.70;96.80
35381;DHT22;21486;51.916;8.378;2023-01-25T16:27:16;-0.70;96.90
35381;DHT22;21486;51.916;8.378;2023-01-25T16:29:45;-0.80;97.10
35381;DHT22;21486;51.916;8.378;2023-01-25T16:32:11;-0.60;96.90
35381;DHT22;21486;51.916;8.378;2023-01-25T16:34:37;-0.70;96.40
35381;DHT22;21486;51.916;8.378;2023-01-25T16:37:03;-0.70;96.80
35381;DHT22;21486;51.916;8.378;2023-01-25T16:39:28;-0.70;96.50
35381;DHT22;21486;51.916;8.378;2023-01-25T16:41:56;-0.80;96.40
35381;DHT22;21486;51.916;8.378;2023-01-25T16:44:22;-0.80;96.50
35381;DHT22;21486;51.916;8.378;2023-01-25T16:46:48;-0.90;97.00
35381;DHT22;21486;51.916;8.378;2023-01-25T16:49:17;-0.90;97.00
35381;DHT22;21486;51.916;8.378;2023-01-25T16:51:43;-0.80;96.50
35381;DHT22;21486;51.916;8.378;2023-01-25T16:54:13;-0.80;96.20
35381;DHT22;21486;51.916;8.378;2023-01-25T16:56:39;-0.90;96.50
35381;DHT22;21486;51.916;8.378;2023-01-25T16:59:05;-0.90;96.50
35381;DHT22;21486;51.916;8.378;2023-01-25T17:01:32;-0.90;96.70
35381;DHT22;21486;51.916;8.378;2023-01-25T17:03:58;-0.90;96.90
35381;DHT22;21486;51.916;8.378;2023-01-25T17:06:29;-0.80;96.60
35381;DHT22;21486;51.916;8.378;2023-01-25T17:08:59;-0.70;96.70
35381;DHT22;21486;51.916;8.378;2023-01-25T17:11:29;-0.80;96.80
35381;DHT22;21486;51.916;8.378;2023-01-25T17:13:57;-0.80;96.90
35381;DHT22;21486;51.916;8.378;2023-01-25T17:16:26;-0.80;97.00
35381;DHT22;21486;51.916;8.378;2023-01-25T17:18:56;-0.80;96.70
35381;DHT22;21486;51.916;8.378;2023-01-25T17:21:23;-1.00;97.40
35381;DHT22;21486;51.916;8.378;2023-01-25T17:23:49;-0.80;97.50
35381;DHT22;21486;51.916;8.378;2023-01-25T17:26:16;-0.80;97.10
35381;DHT22;21486;51.916;8.378;2023-01-25T17:28:42;-0.90;97.10
35381;DHT22;21486;51.916;8.378;2023-01-25T17:31:23;-0.90;97.40